sensor_id;sensor_type;location;lat;lon;timestamp;pressure;altitude;pressure_sealevel;temperature;humidity
39157;BME280;24889;42.424;25.604;2022-10-16T00:01:20;98855.34;;;11.18;100.00
39157;BME280;24889;42.424;25.604;2022-10-16T00:03:46;98827.41;;;10.99;100.00
39157;BME280;24889;42.424;25.604;2022-10-16T00:06:12;98862.56;;;11.24;100.00
39157;BME280;24889;42.424;25.604;2022-10-16T00:08:38;98836.91;;;11.08;100.00
39157;BME280;24889;42.424;25.604;2022-10-16T00:11:14;98864.63;;;11.22;100.00
39157;BME280;24889;42.424;25.604;2022-10-16T00:13:41;98869.13;;;11.15;100.00
39157;BME280;24889;42.424;25.604;2022-10-16T00:16:08;98861.69;;;11.17;100.00
39157;BME280;24889;42.424;25.604;2022-10-16T00:18:34;98867.69;;;11.19;100.00
39157;BME280;24889;42.424;25.604;2022-10-16T00:21:04;98864.78;;;11.14;100.00
39157;BME280;24889;42.424;25.604;2022-10-16T00:23:31;98869.66;;;11.04;100.00
39157;BME280;24889;42.424;25.604;2022-10-16T00:25:59;98869.84;;;11.02;100.00
39157;BME280;24889;42.424;25.604;2022-10-16T00:28:25;98871.06;;;11.00;100.00
39157;BME280;24889;42.424;25.604;2022-10-16T00:30:51;98838.00;;;10.86;100.00
39157;BME280;24889;42.424;25.604;2022-10-16T00:33:16;98863.81;;;10.93;100.00
39157;BME280;24889;42.424;25.604;2022-10-16T00:35:42;98863.44;;;10.96;100.00
39157;BME280;24889;42.424;25.604;2022-10-16T00:38:08;98844.19;;;10.86;100.00
39157;BME280;24889;42.424;25.604;2022-10-16T00:40:34;98866.22;;;11.16;100.00
39157;BME280;24889;42.424;25.604;2022-10-16T00:42:59;98866.28;;;11.23;100.00
39157;BME280;24889;42.424;25.604;2022-10-16T00:45:25;98866.03;;;11.18;100.00
39157;BME280;24889;42.424;25.604;2022-10-16T00:47:53;98863.59;;;11.23;100.00
39157;BME280;24889;42.424;25.604;2022-10-16T00:50:31;98882.34;;;11.23;100.00
39157;BME280;24889;42.424;25.604;2022-10-16T00:52:58;98879.72;;;11.30;100.00
39157;BME280;24889;42.424;25.604;2022-10-16T00:55:25;98872.50;;;11.30;100.00
39157;BME280;24889;42.424;25.604;2022-10-16T00:57:52;98878.25;;;11.27;100.00
39157;BME280;24889;42.424;25.604;2022-10-16T01:00:20;98881.16;;;11.32;100.00
39157;BME280;24889;42.424;25.604;2022-10-16T01:02:58;98877.81;;;11.24;100.00
39157;BME280;24889;42.424;25.604;2022-10-16T01:05:30;98879.88;;;11.28;100.00
39157;BME280;24889;42.424;25.604;2022-10-16T01:13:07;98891.81;;;11.19;100.00
39157;BME280;24889;42.424;25.604;2022-10-16T01:19:09;98902.53;;;11.19;100.00
39157;BME280;24889;42.424;25.604;2022-10-16T01:21:14;98894.69;;;11.17;100.00
39157;BME280;24889;42.424;25.604;2022-10-16T01:24:08;98897.56;;;11.16;100.00
39157;BME280;24889;42.424;25.604;2022-10-16T01:29:37;98900.78;;;11.05;100.00
39157;BME280;24889;42.424;25.604;2022-10-16T01:32:23;98903.06;;;11.08;100.00
39157;BME280;24889;42.424;25.604;2022-10-16T01:38:06;98888.63;;;11.09;100.00
39157;BME280;24889;42.424;25.604;2022-10-16T01:40:35;98895.63;;;11.03;100.00
39157;BME280;24889;42.424;25.604;2022-10-16T01:43:16;98893.75;;;11.04;100.00
39157;BME280;24889;42.424;25.604;2022-10-16T01:45:44;98900.38;;;11.08;100.00
39157;BME280;24889;42.424;25.604;2022-10-16T01:48:14;98895.19;;;11.00;100.00
39157;BME280;24889;42.424;25.604;2022-10-16T01:50:44;98898.72;;;11.07;100.00
39157;BME280;24889;42.424;25.604;2022-10-16T01:53:12;98898.97;;;11.12;100.00
39157;BME280;24889;42.424;25.604;2022-10-16T01:55:41;98901.13;;;10.95;100.00
39157;BME280;24889;42.424;25.604;2022-10-16T01:58:11;98902.38;;;10.99;100.00
39157;BME280;24889;42.424;25.604;2022-10-16T02:00:40;98907.09;;;10.97;100.00
39157;BME280;24889;42.424;25.604;2022-10-16T02:03:09;98897.59;;;10.94;100.00
39157;BME280;24889;42.424;25.604;2022-10-16T02:05:54;98906.03;;;10.91;100.00
39157;BME280;24889;42.424;25.604;2022-10-16T02:08:26;98892.69;;;10.70;100.00
39157;BME280;24889;42.424;25.604;2022-10-16T02:10:57;98915.81;;;10.78;100.00
39157;BME280;24889;42.424;25.604;2022-10-16T02:13:30;98910.38;;;10.71;100.00
39157;BME280;24889;42.424;25.604;2022-10-16T02:15:58;98908.50;;;10.65;100.00
39157;BME280;24889;42.424;25.604;2022-10-16T02:18:24;98895.31;;;10.42;100.00
39157;BME280;24889;42.424;25.604;2022-10-16T02:21:01;98912.19;;;10.42;100.00
39157;BME280;24889;42.424;25.604;2022-10-16T02:23:48;98913.03;;;10.43;100.00
39157;BME280;24889;42.424;25.604;2022-10-16T02:26:26;98917.72;;;10.41;100.00
39157;BME280;24889;42.424;25.604;2022-10-16T02:28:55;98914.94;;;10.28;100.00
39157;BME280;24889;42.424;25.604;2022-10-16T02:31:27;98922.38;;;10.32;100.00
39157;BME280;24889;42.424;25.604;2022-10-16T02:33:56;98920.47;;;10.11;100.00
39157;BME280;24889;42.424;25.604;2022-10-16T02:36:24;98920.41;;;10.05;100.00
39157;BME280;24889;42.424;25.604;2022-10-16T02:38:50;98923.81;;;9.98;100.00
39157;BME280;24889;42.424;25.604;2022-10-16T02:41:17;98923.94;;;9.90;100.00
39157;BME280;24889;42.424;25.604;2022-10-16T02:43:43;98913.16;;;9.84;100.00
39157;BME280;24889;42.424;25.604;2022-10-16T02:46:09;98916.03;;;9.82;100.00
39157;BME280;24889;42.424;25.604;2022-10-16T02:48:34;98917.75;;;9.90;100.00
39157;BME280;24889;42.424;25.604;2022-10-16T02:51:00;98914.63;;;9.86;100.00
39157;BME280;24889;42.424;25.604;2022-10-16T02:53:26;98919.50;;;9.97;100.00
39157;BME280;24889;42.424;25.604;2022-10-16T02:55:51;98911.72;;;10.03;100.00
39157;BME280;24889;42.424;25.604;2022-10-16T02:58:17;98908.31;;;10.09;100.00
39157;BME280;24889;42.424;25.604;2022-10-16T03:00:42;98914.00;;;10.20;100.00
39157;BME280;24889;42.424;25.604;2022-10-16T03:03:08;98914.34;;;10.32;100.00
39157;BME280;24889;42.424;25.604;2022-10-16T03:05:33;98906.56;;;10.37;100.00
39157;BME280;24889;42.424;25.604;2022-10-16T03:07:59;98916.72;;;10.42;100.00
39157;BME280;24889;42.424;25.604;2022-10-16T03:10:26;98928.38;;;10.56;100.00
39157;BME280;24889;42.424;25.604;2022-10-16T03:12:51;98917.53;;;10.64;100.00
39157;BME280;24889;42.424;25.604;2022-10-16T03:15:17;98927.84;;;10.67;100.00
39157;BME280;24889;42.424;25.604;2022-10-16T03:17:42;98932.38;;;10.66;100.00
39157;BME280;24889;42.424;25.604;2022-10-16T03:20:08;98943.03;;;10.81;100.00
39157;BME280;24889;42.424;25.604;2022-10-16T03:22:34;98929.06;;;10.86;100.00
39157;BME280;24889;42.424;25.604;2022-10-16T03:25:00;98941.41;;;10.87;100.00
39157;BME280;24889;42.424;25.604;2022-10-16T03:27:25;98941.47;;;10.93;100.00
39157;BME280;24889;42.424;25.604;2022-10-16T03:29:51;98934.53;;;10.99;100.00
39157;BME280;24889;42.424;25.604;2022-10-16T03:32:16;98933.94;;;11.04;100.00
39157;BME280;24889;42.424;25.604;2022-10-16T03:34:42;98936.41;;;11.05;100.00
39157;BME280;24889;42.424;25.604;2022-10-16T03:37:07;98935.44;;;11.13;100.00
39157;BME280;24889;42.424;25.604;2022-10-16T03:39:32;98941.25;;;11.16;100.00
39157;BME280;24889;42.424;25.604;2022-10-16T03:41:58;98942.16;;;11.30;100.00
39157;BME280;24889;42.424;25.604;2022-10-16T03:44:23;98937.25;;;11.34;100.00
39157;BME280;24889;42.424;25.604;2022-10-16T03:46:49;98946.44;;;11.53;100.00
39157;BME280;24889;42.424;25.604;2022-10-16T03:49:14;98940.25;;;11.52;100.00
39157;BME280;24889;42.424;25.604;2022-10-16T03:51:40;98943.50;;;11.48;100.00
39157;BME280;24889;42.424;25.604;2022-10-16T03:54:05;98949.28;;;11.51;100.00
39157;BME280;24889;42.424;25.604;2022-10-16T03:56:31;98954.69;;;11.58;100.00
39157;BME280;24889;42.424;25.604;2022-10-16T03:58:56;98953.06;;;11.57;100.00
39157;BME280;24889;42.424;25.604;2022-10-16T04:01:22;98957.78;;;11.55;100.00
39157;BME280;24889;42.424;25.604;2022-10-16T04:03:47;98954.34;;;11.67;100.00
39157;BME280;24889;42.424;25.604;2022-10-16T04:06:12;98956.78;;;11.62;100.00
39157;BME280;24889;42.424;25.604;2022-10-16T04:08:38;98953.88;;;11.57;100.00
39157;BME280;24889;42.424;25.604;2022-10-16T04:11:04;98944.16;;;11.50;100.00
39157;BME280;24889;42.424;25.604;2022-10-16T04:13:30;98959.69;;;11.61;100.00
39157;BME280;24889;42.424;25.604;2022-10-16T04:15:56;98936.31;;;11.55;100.00
39157;BME280;24889;42.424;25.604;2022-10-16T04:18:21;98944.84;;;11.65;100.00
39157;BME280;24889;42.424;25.604;2022-10-16T04:20:47;98947.69;;;11.57;100.00
39157;BME280;24889;42.424;25.604;2022-10-16T04:23:12;98941.13;;;11.66;100.00
39157;BME280;24889;42.424;25.604;2022-10-16T04:25:37;98944.69;;;11.73;100.00
39157;BME280;24889;42.424;25.604;2022-10-16T04:28:03;98952.72;;;11.73;100.00
39157;BME280;24889;42.424;25.604;2022-10-16T04:30:28;98950.53;;;11.83;100.00
39157;BME280;24889;42.424;25.604;2022-10-16T04:32:54;98949.25;;;11.79;99.03
39157;BME280;24889;42.424;25.604;2022-10-16T04:35:20;98956.22;;;11.74;100.00
39157;BME280;24889;42.424;25.604;2022-10-16T04:37:46;98969.31;;;11.83;98.49
39157;BME280;24889;42.424;25.604;2022-10-16T04:40:12;98962.75;;;11.86;99.05
39157;BME280;24889;42.424;25.604;2022-10-16T04:42:38;98967.31;;;11.99;96.91
39157;BME280;24889;42.424;25.604;2022-10-16T04:45:05;98971.44;;;11.95;96.24
39157;BME280;24889;42.424;25.604;2022-10-16T04:47:31;98968.94;;;11.93;96.50
39157;BME280;24889;42.424;25.604;2022-10-16T04:49:56;98970.22;;;12.04;96.73
39157;BME280;24889;42.424;25.604;2022-10-16T04:52:22;98977.53;;;12.23;95.28
39157;BME280;24889;42.424;25.604;2022-10-16T04:54:50;98963.31;;;12.29;92.32
39157;BME280;24889;42.424;25.604;2022-10-16T04:57:16;98978.66;;;12.49;91.14
39157;BME280;24889;42.424;25.604;2022-10-16T04:59:41;98983.88;;;12.70;87.84
39157;BME280;24889;42.424;25.604;2022-10-16T05:02:07;98982.84;;;12.78;88.08
39157;BME280;24889;42.424;25.604;2022-10-16T05:04:32;98986.34;;;12.78;87.84
39157;BME280;24889;42.424;25.604;2022-10-16T05:06:58;98978.50;;;12.83;86.96
39157;BME280;24889;42.424;25.604;2022-10-16T05:09:23;98991.53;;;12.86;86.00
39157;BME280;24889;42.424;25.604;2022-10-16T05:11:49;98992.78;;;13.04;83.82
39157;BME280;24889;42.424;25.604;2022-10-16T05:14:14;98999.03;;;13.24;81.45
39157;BME280;24889;42.424;25.604;2022-10-16T05:16:40;98965.91;;;13.17;81.71
39157;BME280;24889;42.424;25.604;2022-10-16T05:19:05;99002.31;;;13.53;79.22
39157;BME280;24889;42.424;25.604;2022-10-16T05:21:30;98999.19;;;13.76;78.30
39157;BME280;24889;42.424;25.604;2022-10-16T05:23:56;99008.00;;;13.96;77.18
39157;BME280;24889;42.424;25.604;2022-10-16T05:26:21;99009.78;;;14.22;74.22
39157;BME280;24889;42.424;25.604;2022-10-16T05:28:47;99007.91;;;14.29;72.72
39157;BME280;24889;42.424;25.604;2022-10-16T05:31:13;99014.88;;;14.44;71.90
39157;BME280;24889;42.424;25.604;2022-10-16T05:33:38;99009.63;;;14.62;69.58
39157;BME280;24889;42.424;25.604;2022-10-16T05:36:05;99018.94;;;14.66;70.26
39157;BME280;24889;42.424;25.604;2022-10-16T05:38:33;99013.59;;;14.59;68.26
39157;BME280;24889;42.424;25.604;2022-10-16T05:40:58;99016.44;;;14.71;68.40
39157;BME280;24889;42.424;25.604;2022-10-16T05:43:24;99014.41;;;14.60;68.03
39157;BME280;24889;42.424;25.604;2022-10-16T05:46:03;99020.25;;;14.50;68.46
39157;BME280;24889;42.424;25.604;2022-10-16T05:48:29;99021.41;;;14.68;67.52
39157;BME280;24889;42.424;25.604;2022-10-16T05:51:06;99029.75;;;14.59;68.44
39157;BME280;24889;42.424;25.604;2022-10-16T05:53:34;99032.66;;;14.58;70.19
39157;BME280;24889;42.424;25.604;2022-10-16T05:56:00;99039.63;;;14.72;68.37
39157;BME280;24889;42.424;25.604;2022-10-16T05:58:31;99034.91;;;14.99;69.84
39157;BME280;24889;42.424;25.604;2022-10-16T06:00:59;99044.09;;;15.23;68.00
39157;BME280;24889;42.424;25.604;2022-10-16T06:03:25;99051.06;;;15.56;64.22
39157;BME280;24889;42.424;25.604;2022-10-16T06:05:51;99045.44;;;15.82;64.14
39157;BME280;24889;42.424;25.604;2022-10-16T06:08:18;99047.56;;;16.17;61.94
39157;BME280;24889;42.424;25.604;2022-10-16T06:10:44;99052.22;;;16.47;60.45
39157;BME280;24889;42.424;25.604;2022-10-16T06:13:11;99053.81;;;17.15;54.94
39157;BME280;24889;42.424;25.604;2022-10-16T06:15:36;99060.06;;;15.50;61.21
39157;BME280;24889;42.424;25.604;2022-10-16T06:18:04;99054.34;;;15.08;64.44
39157;BME280;24889;42.424;25.604;2022-10-16T06:20:30;99038.91;;;14.39;68.59
39157;BME280;24889;42.424;25.604;2022-10-16T06:22:55;99049.09;;;14.36;72.17
39157;BME280;24889;42.424;25.604;2022-10-16T06:25:21;99062.13;;;14.40;73.07
39157;BME280;24889;42.424;25.604;2022-10-16T06:27:46;99056.72;;;14.91;70.42
39157;BME280;24889;42.424;25.604;2022-10-16T06:30:11;99064.41;;;14.88;67.63
39157;BME280;24889;42.424;25.604;2022-10-16T06:32:37;99066.16;;;14.75;67.89
39157;BME280;24889;42.424;25.604;2022-10-16T06:35:02;99072.84;;;15.29;67.58
39157;BME280;24889;42.424;25.604;2022-10-16T06:37:28;99073.84;;;15.03;65.70
39157;BME280;24889;42.424;25.604;2022-10-16T06:39:53;99076.88;;;15.45;64.62
39157;BME280;24889;42.424;25.604;2022-10-16T06:42:19;99084.56;;;15.73;63.53
39157;BME280;24889;42.424;25.604;2022-10-16T06:44:45;99087.31;;;15.92;61.50
39157;BME280;24889;42.424;25.604;2022-10-16T06:47:10;99085.38;;;16.91;57.97
39157;BME280;24889;42.424;25.604;2022-10-16T06:49:36;99089.19;;;17.43;54.75
39157;BME280;24889;42.424;25.604;2022-10-16T06:52:01;99093.59;;;17.80;53.97
39157;BME280;24889;42.424;25.604;2022-10-16T06:54:27;99091.63;;;18.74;52.40
39157;BME280;24889;42.424;25.604;2022-10-16T06:56:53;99085.78;;;18.94;48.35
39157;BME280;24889;42.424;25.604;2022-10-16T06:59:20;99094.59;;;19.30;47.57
39157;BME280;24889;42.424;25.604;2022-10-16T07:01:45;99096.44;;;20.08;43.88
39157;BME280;24889;42.424;25.604;2022-10-16T07:04:10;99095.63;;;20.30;43.29
39157;BME280;24889;42.424;25.604;2022-10-16T07:06:36;99096.78;;;20.34;42.26
39157;BME280;24889;42.424;25.604;2022-10-16T07:09:06;99105.69;;;20.29;42.94
39157;BME280;24889;42.424;25.604;2022-10-16T07:11:33;99107.13;;;20.76;41.58
39157;BME280;24889;42.424;25.604;2022-10-16T07:13:58;99108.38;;;20.90;41.50
39157;BME280;24889;42.424;25.604;2022-10-16T07:16:26;99110.56;;;21.69;41.68
39157;BME280;24889;42.424;25.604;2022-10-16T07:18:56;99091.81;;;21.73;39.60
39157;BME280;24889;42.424;25.604;2022-10-16T07:21:25;99103.13;;;21.05;41.54
39157;BME280;24889;42.424;25.604;2022-10-16T07:23:52;99101.75;;;21.57;39.94
39157;BME280;24889;42.424;25.604;2022-10-16T07:26:18;99102.38;;;22.01;40.64
39157;BME280;24889;42.424;25.604;2022-10-16T07:28:44;99094.13;;;22.33;38.12
39157;BME280;24889;42.424;25.604;2022-10-16T07:31:11;99100.88;;;22.21;37.88
39157;BME280;24889;42.424;25.604;2022-10-16T07:33:40;99089.28;;;22.46;36.82
39157;BME280;24889;42.424;25.604;2022-10-16T07:36:07;99091.03;;;22.62;36.56
39157;BME280;24889;42.424;25.604;2022-10-16T07:38:33;99083.13;;;22.71;36.03
39157;BME280;24889;42.424;25.604;2022-10-16T07:40:59;99083.81;;;23.03;35.20
39157;BME280;24889;42.424;25.604;2022-10-16T07:43:26;99089.88;;;23.31;35.23
39157;BME280;24889;42.424;25.604;2022-10-16T07:45:52;99071.84;;;23.15;34.68
39157;BME280;24889;42.424;25.604;2022-10-16T07:48:18;99075.09;;;23.12;35.37
39157;BME280;24889;42.424;25.604;2022-10-16T07:50:44;99094.59;;;22.73;35.10
39157;BME280;24889;42.424;25.604;2022-10-16T07:53:10;99088.69;;;22.91;33.85
39157;BME280;24889;42.424;25.604;2022-10-16T07:55:36;99092.78;;;22.99;33.98
39157;BME280;24889;42.424;25.604;2022-10-16T07:58:02;99094.78;;;23.19;33.44
39157;BME280;24889;42.424;25.604;2022-10-16T08:00:27;99090.97;;;23.50;34.17
39157;BME280;24889;42.424;25.604;2022-10-16T08:02:53;99093.16;;;23.64;33.21
39157;BME280;24889;42.424;25.604;2022-10-16T08:05:18;99096.47;;;23.76;32.08
39157;BME280;24889;42.424;25.604;2022-10-16T08:07:48;99096.94;;;23.22;32.15
39157;BME280;24889;42.424;25.604;2022-10-16T08:10:16;99097.28;;;24.02;31.98
39157;BME280;24889;42.424;25.604;2022-10-16T08:12:42;99099.13;;;24.42;31.63
39157;BME280;24889;42.424;25.604;2022-10-16T08:15:08;99099.31;;;24.66;31.86
39157;BME280;24889;42.424;25.604;2022-10-16T08:17:34;99090.19;;;24.81;30.26
39157;BME280;24889;42.424;25.604;2022-10-16T08:19:59;99098.00;;;24.38;30.41
39157;BME280;24889;42.424;25.604;2022-10-16T08:22:25;99083.31;;;24.14;32.20
39157;BME280;24889;42.424;25.604;2022-10-16T08:24:50;99081.69;;;23.82;31.96
39157;BME280;24889;42.424;25.604;2022-10-16T08:27:16;99087.06;;;24.48;31.29
39157;BME280;24889;42.424;25.604;2022-10-16T08:29:41;99083.56;;;25.42;28.72
39157;BME280;24889;42.424;25.604;2022-10-16T08:32:06;99069.97;;;25.32;28.62
39157;BME280;24889;42.424;25.604;2022-10-16T08:34:32;99081.09;;;24.16;30.32
39157;BME280;24889;42.424;25.604;2022-10-16T08:36:57;99085.53;;;23.81;31.23
39157;BME280;24889;42.424;25.604;2022-10-16T08:39:23;99069.28;;;24.46;30.70
39157;BME280;24889;42.424;25.604;2022-10-16T08:44:41;99086.06;;;24.03;29.81
39157;BME280;24889;42.424;25.604;2022-10-16T08:47:23;99084.94;;;23.64;31.03
39157;BME280;24889;42.424;25.604;2022-10-16T08:50:02;99078.06;;;24.43;29.67
39157;BME280;24889;42.424;25.604;2022-10-16T08:52:35;99084.66;;;24.16;30.12
39157;BME280;24889;42.424;25.604;2022-10-16T08:55:04;99100.75;;;24.28;29.10
39157;BME280;24889;42.424;25.604;2022-10-16T08:57:30;99084.09;;;24.19;29.11
39157;BME280;24889;42.424;25.604;2022-10-16T09:00:12;99087.66;;;25.44;26.65
39157;BME280;24889;42.424;25.604;2022-10-16T09:02:43;99089.59;;;24.09;27.07
39157;BME280;24889;42.424;25.604;2022-10-16T09:10:38;99105.97;;;24.30;27.99
39157;BME280;24889;42.424;25.604;2022-10-16T09:13:35;99106.03;;;25.44;27.22
39157;BME280;24889;42.424;25.604;2022-10-16T09:18:45;99091.44;;;25.54;26.55
39157;BME280;24889;42.424;25.604;2022-10-16T09:21:24;99092.03;;;25.51;26.75
39157;BME280;24889;42.424;25.604;2022-10-16T09:23:51;99103.25;;;24.99;29.40
39157;BME280;24889;42.424;25.604;2022-10-16T09:26:16;99100.22;;;25.11;29.86
39157;BME280;24889;42.424;25.604;2022-10-16T09:28:45;99099.81;;;24.79;29.60
39157;BME280;24889;42.424;25.604;2022-10-16T09:31:16;99084.16;;;24.84;28.51
39157;BME280;24889;42.424;25.604;2022-10-16T09:33:44;99084.94;;;25.44;29.21
39157;BME280;24889;42.424;25.604;2022-10-16T09:36:11;99085.31;;;24.78;29.00
39157;BME280;24889;42.424;25.604;2022-10-16T09:38:38;99083.88;;;24.00;31.18
39157;BME280;24889;42.424;25.604;2022-10-16T09:41:24;99090.09;;;24.37;30.07
39157;BME280;24889;42.424;25.604;2022-10-16T09:46:28;99085.47;;;24.27;30.86
39157;BME280;24889;42.424;25.604;2022-10-16T09:48:59;99071.81;;;24.92;30.82
39157;BME280;24889;42.424;25.604;2022-10-16T09:51:30;99077.38;;;24.82;30.16
39157;BME280;24889;42.424;25.604;2022-10-16T09:54:01;99075.09;;;24.94;29.33
39157;BME280;24889;42.424;25.604;2022-10-16T09:56:32;99068.56;;;23.48;30.71
39157;BME280;24889;42.424;25.604;2022-10-16T09:59:01;99068.84;;;23.93;31.81
39157;BME280;24889;42.424;25.604;2022-10-16T10:01:31;99062.56;;;24.83;30.52
39157;BME280;24889;42.424;25.604;2022-10-16T10:04:01;99056.91;;;25.53;30.63
39157;BME280;24889;42.424;25.604;2022-10-16T10:09:48;99055.19;;;23.47;31.28
39157;BME280;24889;42.424;25.604;2022-10-16T10:12:21;99051.66;;;23.87;31.62
39157;BME280;24889;42.424;25.604;2022-10-16T10:14:52;99041.75;;;24.01;31.03
39157;BME280;24889;42.424;25.604;2022-10-16T10:19:49;99050.63;;;22.59;32.85
39157;BME280;24889;42.424;25.604;2022-10-16T10:22:19;99053.66;;;22.68;31.76
39157;BME280;24889;42.424;25.604;2022-10-16T10:25:12;99048.63;;;23.12;32.90
39157;BME280;24889;42.424;25.604;2022-10-16T10:30:43;99025.13;;;23.01;32.05
39157;BME280;24889;42.424;25.604;2022-10-16T10:35:56;99046.03;;;22.75;31.75
39157;BME280;24889;42.424;25.604;2022-10-16T10:45:55;99032.50;;;23.26;30.76
39157;BME280;24889;42.424;25.604;2022-10-16T11:07:22;99018.00;;;22.95;33.37
39157;BME280;24889;42.424;25.604;2022-10-16T11:09:53;99024.22;;;22.70;31.14
39157;BME280;24889;42.424;25.604;2022-10-16T11:12:30;99023.03;;;22.45;32.07
39157;BME280;24889;42.424;25.604;2022-10-16T11:17:35;99004.34;;;22.85;35.22
39157;BME280;24889;42.424;25.604;2022-10-16T11:22:51;99011.56;;;22.43;31.41
39157;BME280;24889;42.424;25.604;2022-10-16T11:25:22;99007.69;;;22.24;34.24
39157;BME280;24889;42.424;25.604;2022-10-16T11:27:54;99002.66;;;22.05;31.96
39157;BME280;24889;42.424;25.604;2022-10-16T11:30:27;99009.75;;;22.11;33.18
39157;BME280;24889;42.424;25.604;2022-10-16T11:38:58;99016.78;;;20.69;35.80
39157;BME280;24889;42.424;25.604;2022-10-16T11:41:35;99018.06;;;20.88;35.60
39157;BME280;24889;42.424;25.604;2022-10-16T11:46:57;99014.28;;;21.21;34.10
39157;BME280;24889;42.424;25.604;2022-10-16T11:49:26;99010.22;;;21.24;35.21
39157;BME280;24889;42.424;25.604;2022-10-16T11:55:15;99021.81;;;20.38;37.56
39157;BME280;24889;42.424;25.604;2022-10-16T11:57:51;99023.28;;;20.46;37.24
39157;BME280;24889;42.424;25.604;2022-10-16T12:03:29;99019.28;;;20.75;35.73
39157;BME280;24889;42.424;25.604;2022-10-16T12:06:47;99016.59;;;20.53;38.02
39157;BME280;24889;42.424;25.604;2022-10-16T12:08:53;99009.44;;;20.96;38.58
39157;BME280;24889;42.424;25.604;2022-10-16T12:11:30;99014.50;;;21.14;37.61
39157;BME280;24889;42.424;25.604;2022-10-16T12:16:58;99019.66;;;20.40;36.67
39157;BME280;24889;42.424;25.604;2022-10-16T12:19:29;99018.78;;;20.78;38.73
39157;BME280;24889;42.424;25.604;2022-10-16T12:21:57;99028.72;;;20.24;36.28
39157;BME280;24889;42.424;25.604;2022-10-16T12:26:52;99028.31;;;20.15;37.19
39157;BME280;24889;42.424;25.604;2022-10-16T12:32:31;99031.78;;;19.55;36.58
39157;BME280;24889;42.424;25.604;2022-10-16T12:34:58;99037.91;;;19.50;36.26
39157;BME280;24889;42.424;25.604;2022-10-16T12:37:27;99028.88;;;19.44;37.80
39157;BME280;24889;42.424;25.604;2022-10-16T12:39:54;99030.78;;;19.78;36.82
39157;BME280;24889;42.424;25.604;2022-10-16T12:44:53;99039.34;;;19.86;37.23
39157;BME280;24889;42.424;25.604;2022-10-16T12:47:36;99042.78;;;20.21;37.16
39157;BME280;24889;42.424;25.604;2022-10-16T12:50:03;99033.03;;;19.64;36.13
39157;BME280;24889;42.424;25.604;2022-10-16T12:52:38;99042.38;;;19.56;36.08
39157;BME280;24889;42.424;25.604;2022-10-16T12:55:06;99037.25;;;19.43;36.38
39157;BME280;24889;42.424;25.604;2022-10-16T13:00:22;99048.72;;;19.28;36.45
39157;BME280;24889;42.424;25.604;2022-10-16T13:17:31;99050.31;;;20.13;39.17
39157;BME280;24889;42.424;25.604;2022-10-16T13:25:52;99056.66;;;20.02;34.56
39157;BME280;24889;42.424;25.604;2022-10-16T13:28:27;99055.78;;;19.97;36.26
39157;BME280;24889;42.424;25.604;2022-10-16T13:30:56;99056.28;;;19.77;36.47
39157;BME280;24889;42.424;25.604;2022-10-16T13:33:36;99055.47;;;19.59;35.92
39157;BME280;24889;42.424;25.604;2022-10-16T13:36:03;99050.47;;;19.68;37.07
39157;BME280;24889;42.424;25.604;2022-10-16T13:38:31;99051.81;;;19.54;36.89
39157;BME280;24889;42.424;25.604;2022-10-16T13:40:58;99052.75;;;19.59;37.05
39157;BME280;24889;42.424;25.604;2022-10-16T13:43:33;99052.34;;;19.67;36.13
39157;BME280;24889;42.424;25.604;2022-10-16T13:46:04;99055.03;;;19.34;36.75
39157;BME280;24889;42.424;25.604;2022-10-16T13:48:31;99051.56;;;19.22;38.91
39157;BME280;24889;42.424;25.604;2022-10-16T13:51:02;99054.75;;;19.02;37.42
39157;BME280;24889;42.424;25.604;2022-10-16T13:53:30;99049.06;;;19.03;39.60
39157;BME280;24889;42.424;25.604;2022-10-16T13:55:56;99062.81;;;19.13;37.14
39157;BME280;24889;42.424;25.604;2022-10-16T13:58:21;99059.22;;;19.25;37.54
39157;BME280;24889;42.424;25.604;2022-10-16T14:03:20;99049.16;;;19.08;38.68
39157;BME280;24889;42.424;25.604;2022-10-16T14:08:13;99063.03;;;18.95;38.63
39157;BME280;24889;42.424;25.604;2022-10-16T14:10:39;99045.41;;;18.81;40.00
39157;BME280;24889;42.424;25.604;2022-10-16T14:13:06;99070.19;;;18.73;39.47
39157;BME280;24889;42.424;25.604;2022-10-16T14:15:34;99068.34;;;18.90;39.56
39157;BME280;24889;42.424;25.604;2022-10-16T14:18:00;99068.94;;;18.92;39.09
39157;BME280;24889;42.424;25.604;2022-10-16T14:20:32;99069.03;;;18.97;39.36
39157;BME280;24889;42.424;25.604;2022-10-16T14:23:19;99074.59;;;19.19;38.76
39157;BME280;24889;42.424;25.604;2022-10-16T14:25:46;99062.31;;;19.16;38.84
39157;BME280;24889;42.424;25.604;2022-10-16T14:36:16;99079.06;;;18.56;40.33
39157;BME280;24889;42.424;25.604;2022-10-16T14:39:02;99094.25;;;18.57;40.70
39157;BME280;24889;42.424;25.604;2022-10-16T14:41:31;99090.69;;;18.68;39.82
39157;BME280;24889;42.424;25.604;2022-10-16T14:44:01;99098.94;;;18.62;39.96
39157;BME280;24889;42.424;25.604;2022-10-16T14:46:38;99094.75;;;18.42;40.88
39157;BME280;24889;42.424;25.604;2022-10-16T14:49:15;99091.69;;;18.39;41.39
39157;BME280;24889;42.424;25.604;2022-10-16T14:51:42;99086.31;;;18.15;41.36
39157;BME280;24889;42.424;25.604;2022-10-16T14:54:11;99095.38;;;17.97;41.39
39157;BME280;24889;42.424;25.604;2022-10-16T14:56:54;99093.97;;;17.83;41.78
39157;BME280;24889;42.424;25.604;2022-10-16T15:01:55;99110.00;;;17.85;42.49
39157;BME280;24889;42.424;25.604;2022-10-16T15:04:20;99108.06;;;17.73;42.74
39157;BME280;24889;42.424;25.604;2022-10-16T15:06:46;99105.09;;;17.63;42.71
39157;BME280;24889;42.424;25.604;2022-10-16T15:09:11;99113.47;;;17.62;42.87
39157;BME280;24889;42.424;25.604;2022-10-16T15:11:37;99105.28;;;17.50;42.76